Time,TemperatureF,DewpointF,PressureIn,WindDirection,WindDirectionDegrees,WindSpeedMPH,WindSpeedGustMPH,Humidity,HourlyPrecipIn,Conditions,Clouds,dailyrainin,SoftwareType,DateUTC
2013-07-17 00:01:00,71.2,70.3,30.09,NE,51,0.0,0.0,97,0.00,,,0.00,meteohub,2013-07-17 04:01:00,
2013-07-17 00:02:00,71.1,70.2,30.09,NE,51,0.0,0.0,97,0.00,,,0.00,meteohub,2013-07-17 04:02:00,
2013-07-17 00:03:00,71.1,70.2,30.09,NE,51,0.0,0.0,97,0.00,,,0.00,meteohub,2013-07-17 04:03:00,
2013-07-17 00:04:00,71.1,70.2,30.09,NE,51,0.0,0.0,97,0.00,,,0.00,meteohub,2013-07-17 04:04:00,
2013-07-17 00:09:00,71.1,70.2,30.09,NE,51,0.0,0.0,97,0.00,,,0.00,meteohub,2013-07-17 04:09:00,
2013-07-17 00:14:00,71.1,70.5,30.09,NE,51,0.0,0.0,98,0.00,,,0.00,meteohub,2013-07-17 04:14:00,
2013-07-17 00:19:00,71.1,70.5,30.09,NE,51,0.0,0.0,98,0.00,,,0.00,meteohub,2013-07-17 04:19:00,
2013-07-17 00:24:00,70.9,70.3,30.09,NE,51,0.0,0.0,98,0.00,,,0.00,meteohub,2013-07-17 04:24:00,
2013-07-17 00:29:00,70.7,70.2,30.10,NE,51,0.0,0.0,98,0.00,,,0.00,meteohub,2013-07-17 04:29:00,
2013-07-17 00:34:00,70.7,70.2,30.10,NE,51,0.0,0.0,98,0.00,,,0.00,meteohub,2013-07-17 04:34:00,
2013-07-17 00:39:00,70.9,70.3,30.09,NE,51,0.0,0.0,98,0.00,,,0.00,meteohub,2013-07-17 04:39:00,
2013-07-17 00:44:00,70.9,70.3,30.09,NE,51,0.0,0.0,98,0.00,,,0.00,meteohub,2013-07-17 04:44:00,
2013-07-17 00:49:00,70.9,70.3,30.09,NE,51,0.0,0.0,98,0.00,,,0.00,meteohub,2013-07-17 04:49:00,
2013-07-17 00:54:00,70.5,70.0,30.09,NE,51,0.0,0.0,98,0.00,,,0.00,meteohub,2013-07-17 04:54:00,
2013-07-17 00:55:00,70.5,70.0,30.09,NE,51,0.0,0.0,98,0.00,,,0.00,meteohub,2013-07-17 04:55:00,
2013-07-17 01:00:00,70.5,70.0,30.09,NE,51,0.0,0.0,98,0.00,,,0.00,meteohub,2013-07-17 05:00:00,
2013-07-17 01:05:00,70.3,69.8,30.09,NE,51,0.0,0.0,98,0.00,,,0.00,meteohub,2013-07-17 05:05:00,
2013-07-17 01:11:00,70.3,69.8,30.09,NE,51,0.0,0.0,98,0.00,,,0.00,meteohub,2013-07-17 05:11:00,
2013-07-17 01:16:00,70.2,69.6,30.09,NE,51,0.0,0.0,98,0.00,,,0.00,meteohub,2013-07-17 05:16:00,
2013-07-17 01:21:00,70.0,69.4,30.09,NE,51,0.0,0.0,98,0.00,,,0.00,meteohub,2013-07-17 05:21:00,
2013-07-17 01:26:00,70.0,69.4,30.09,NE,51,0.0,0.0,98,0.00,,,0.00,meteohub,2013-07-17 05:26:00,
2013-07-17 01:31:00,70.0,69.4,30.09,NE,51,0.0,0.0,98,0.00,,,0.00,meteohub,2013-07-17 05:31:00,
2013-07-17 01:36:00,69.8,69.3,30.09,NE,51,0.0,0.0,98,0.00,,,0.00,meteohub,2013-07-17 05:36:00,
2013-07-17 01:41:00,69.6,69.1,30.09,NE,51,0.0,0.0,98,0.00,,,0.00,meteohub,2013-07-17 05:41:00,
2013-07-17 01:46:00,69.6,69.1,30.09,NE,51,0.0,0.0,98,0.00,,,0.00,meteohub,2013-07-17 05:46:00,
2013-07-17 01:51:00,69.6,69.1,30.09,NE,51,0.0,0.0,98,0.00,,,0.00,meteohub,2013-07-17 05:51:00,
2013-07-17 01:56:00,69.6,69.3,30.09,NE,51,0.0,0.0,99,0.00,,,0.00,meteohub,2013-07-17 05:56:00,
2013-07-17 02:01:00,69.6,69.3,30.09,NE,51,0.0,0.0,99,0.00,,,0.00,meteohub,2013-07-17 06:01:00,
2013-07-17 02:06:00,69.6,69.1,30.08,NE,51,0.0,0.0,98,0.00,,,0.00,meteohub,2013-07-17 06:06:00,
2013-07-17 02:11:00,69.4,68.9,30.08,NE,51,0.0,0.0,98,0.00,,,0.00,meteohub,2013-07-17 06:11:00,
2013-07-17 02:16:00,69.3,68.7,30.09,NE,51,0.0,0.0,98,0.00,,,0.00,meteohub,2013-07-17 06:16:00,
2013-07-17 02:21:00,69.1,68.5,30.08,NE,51,0.0,0.0,98,0.00,,,0.00,meteohub,2013-07-17 06:21:00,
2013-07-17 02:27:00,69.1,68.5,30.08,NE,51,0.0,0.0,98,0.00,,,0.00,meteohub,2013-07-17 06:27:00,
2013-07-17 02:32:00,69.3,68.9,30.08,NE,51,0.0,0.0,99,0.00,,,0.00,meteohub,2013-07-17 06:32:00,
2013-07-17 02:37:00,69.3,68.9,30.08,NE,51,0.0,0.0,99,0.00,,,0.00,meteohub,2013-07-17 06:37:00,
2013-07-17 02:42:00,69.3,68.9,30.08,NE,51,0.0,0.0,99,0.00,,,0.00,meteohub,2013-07-17 06:42:00,
2013-07-17 02:47:00,69.3,68.9,30.08,NE,51,0.0,0.0,99,0.00,,,0.00,meteohub,2013-07-17 06:47:00,
2013-07-17 02:52:00,69.1,68.7,30.08,NE,51,0.0,0.0,99,0.00,,,0.00,meteohub,2013-07-17 06:52:00,
2013-07-17 02:57:00,69.1,68.7,30.08,NE,51,0.0,0.0,99,0.00,,,0.00,meteohub,2013-07-17 06:57:00,
2013-07-17 03:02:00,68.7,68.4,30.08,NE,51,0.0,0.0,99,0.00,,,0.00,meteohub,2013-07-17 07:02:00,
2013-07-17 03:07:00,68.7,68.4,30.08,NE,51,0.0,0.0,99,0.00,,,0.00,meteohub,2013-07-17 07:07:00,
2013-07-17 03:12:00,68.9,68.5,30.08,NE,51,0.0,0.0,99,0.00,,,0.00,meteohub,2013-07-17 07:12:00,
2013-07-17 03:17:00,69.1,68.7,30.08,NE,51,0.0,0.0,99,0.00,,,0.00,meteohub,2013-07-17 07:17:00,
2013-07-17 03:22:00,69.1,68.7,30.08,NE,51,0.0,0.0,99,0.00,,,0.00,meteohub,2013-07-17 07:22:00,
2013-07-17 03:27:00,68.9,68.5,30.08,NE,51,0.0,0.0,99,0.00,,,0.00,meteohub,2013-07-17 07:27:00,
2013-07-17 03:32:00,68.7,68.4,30.08,NE,51,0.0,0.0,99,0.00,,,0.00,meteohub,2013-07-17 07:32:00,
2013-07-17 03:37:00,68.5,68.2,30.08,NE,51,0.0,0.0,99,0.00,,,0.00,meteohub,2013-07-17 07:37:00,
2013-07-17 03:42:00,68.4,68.0,30.08,NE,51,0.0,0.0,99,0.00,,,0.00,meteohub,2013-07-17 07:42:00,
2013-07-17 03:47:00,68.4,68.0,30.08,NE,51,0.0,0.0,99,0.00,,,0.00,meteohub,2013-07-17 07:47:00,
2013-07-17 03:52:00,68.2,67.8,30.08,NE,51,0.0,0.0,99,0.00,,,0.00,meteohub,2013-07-17 07:52:00,
2013-07-17 03:57:00,68.2,67.8,30.08,NE,51,0.0,0.0,99,0.00,,,0.00,meteohub,2013-07-17 07:57:00,
2013-07-17 04:02:00,68.4,68.0,30.08,NE,51,0.0,0.0,99,0.00,,,0.00,meteohub,2013-07-17 08:02:00,
2013-07-17 04:07:00,68.4,68.0,30.09,NE,51,0.0,0.0,99,0.00,,,0.00,meteohub,2013-07-17 08:07:00,
2013-07-17 04:12:00,68.2,67.8,30.09,NE,51,0.0,0.0,99,0.00,,,0.00,meteohub,2013-07-17 08:12:00,
2013-07-17 04:17:00,68.0,67.6,30.09,NE,51,0.0,0.0,99,0.00,,,0.00,meteohub,2013-07-17 08:17:00,
2013-07-17 04:22:00,68.0,67.6,30.09,NE,51,0.0,0.0,99,0.00,,,0.00,meteohub,2013-07-17 08:22:00,
2013-07-17 04:27:00,68.0,67.6,30.09,NE,51,0.0,0.0,99,0.00,,,0.00,meteohub,2013-07-17 08:27:00,
2013-07-17 04:32:00,68.2,67.8,30.09,NE,51,0.0,0.0,99,0.00,,,0.00,meteohub,2013-07-17 08:32:00,
2013-07-17 04:37:00,68.2,67.8,30.09,NE,51,0.0,0.0,99,0.00,,,0.00,meteohub,2013-07-17 08:37:00,
2013-07-17 04:42:00,67.8,67.5,30.09,NE,51,0.0,0.0,99,0.00,,,0.00,meteohub,2013-07-17 08:42:00,
2013-07-17 04:47:00,67.8,67.5,30.09,NE,51,0.0,0.0,99,0.00,,,0.00,meteohub,2013-07-17 08:47:00,
2013-07-17 04:52:00,67.6,67.3,30.09,NE,51,0.0,0.0,99,0.00,,,0.00,meteohub,2013-07-17 08:52:00,
2013-07-17 04:57:00,67.6,67.3,30.09,NE,51,0.0,0.0,99,0.00,,,0.00,meteohub,2013-07-17 08:57:00,
2013-07-17 05:02:00,67.5,67.1,30.09,NE,51,0.0,0.0,99,0.00,,,0.00,meteohub,2013-07-17 09:02:00,
2013-07-17 05:07:00,67.5,67.1,30.10,NE,51,0.0,0.0,99,0.00,,,0.00,meteohub,2013-07-17 09:07:00,
2013-07-17 05:12:00,67.5,67.1,30.10,NE,51,0.0,0.0,99,0.00,,,0.00,meteohub,2013-07-17 09:12:00,
2013-07-17 05:17:00,67.5,67.1,30.10,NE,51,0.0,0.0,99,0.00,,,0.00,meteohub,2013-07-17 09:17:00,
2013-07-17 05:22:00,67.5,67.1,30.10,NE,51,0.0,0.0,99,0.00,,,0.00,meteohub,2013-07-17 09:22:00,
2013-07-17 05:27:00,67.5,67.1,30.10,NE,51,0.0,0.0,99,0.00,,,0.00,meteohub,2013-07-17 09:27:00,
2013-07-17 05:32:00,67.3,66.9,30.10,NE,51,0.0,0.0,99,0.00,,,0.00,meteohub,2013-07-17 09:32:00,
2013-07-17 05:37:00,67.3,66.9,30.11,NE,51,0.0,0.0,99,0.00,,,0.00,meteohub,2013-07-17 09:37:00,
2013-07-17 05:42:00,67.1,66.7,30.11,NE,51,0.0,0.0,99,0.00,,,0.00,meteohub,2013-07-17 09:42:00,
2013-07-17 05:47:00,66.9,66.6,30.11,NE,51,0.0,0.0,99,0.00,,,0.00,meteohub,2013-07-17 09:47:00,
2013-07-17 05:52:00,66.9,66.6,30.11,NE,51,0.0,0.0,99,0.00,,,0.00,meteohub,2013-07-17 09:52:00,
2013-07-17 05:57:00,66.9,66.6,30.11,NE,51,0.0,0.0,99,0.00,,,0.00,meteohub,2013-07-17 09:57:00,
2013-07-17 06:02:00,66.9,66.6,30.11,NE,51,0.0,0.0,99,0.00,,,0.00,meteohub,2013-07-17 10:02:00,
2013-07-17 06:07:00,66.9,66.6,30.12,NE,51,0.0,0.0,99,0.00,,,0.00,meteohub,2013-07-17 10:07:00,
2013-07-17 06:12:00,66.9,66.6,30.11,NE,51,0.0,0.0,99,0.00,,,0.00,meteohub,2013-07-17 10:12:00,
2013-07-17 06:17:00,67.1,66.7,30.11,NE,51,0.0,0.0,99,0.00,,,0.00,meteohub,2013-07-17 10:17:00,
2013-07-17 06:22:00,67.3,66.9,30.12,NE,51,0.0,0.0,99,0.00,,,0.00,meteohub,2013-07-17 10:22:00,
2013-07-17 06:27:00,67.3,66.9,30.12,NE,51,0.0,0.0,99,0.00,,,0.00,meteohub,2013-07-17 10:27:00,
2013-07-17 06:32:00,67.6,67.3,30.12,NE,51,0.0,0.0,99,0.00,,,0.00,meteohub,2013-07-17 10:32:00,
2013-07-17 06:37:00,68.2,67.8,30.12,NE,51,0.0,0.0,99,0.00,,,0.00,meteohub,2013-07-17 10:37:00,
2013-07-17 06:42:00,68.7,68.4,30.12,NE,51,0.0,0.0,99,0.00,,,0.00,meteohub,2013-07-17 10:42:00,
2013-07-17 06:47:00,70.2,69.8,30.12,NE,51,0.0,0.0,99,0.00,,,0.00,meteohub,2013-07-17 10:47:00,
2013-07-17 06:52:00,70.2,69.8,30.12,NE,51,0.0,0.0,99,0.00,,,0.00,meteohub,2013-07-17 10:52:00,
2013-07-17 06:57:00,71.1,70.7,30.12,NE,51,0.0,0.0,99,0.00,,,0.00,meteohub,2013-07-17 10:57:00,
2013-07-17 07:02:00,72.0,71.6,30.12,NE,51,0.0,0.0,99,0.00,,,0.00,meteohub,2013-07-17 11:02:00,
2013-07-17 07:07:00,73.0,72.7,30.12,NE,51,0.0,0.0,99,0.00,,,0.00,meteohub,2013-07-17 11:07:00,
2013-07-17 07:12:00,72.7,72.1,30.12,NE,51,0.0,0.0,98,0.00,,,0.00,meteohub,2013-07-17 11:12:00,
2013-07-17 07:17:00,72.3,71.4,30.12,NE,51,0.0,0.0,97,0.00,,,0.00,meteohub,2013-07-17 11:17:00,
2013-07-17 07:22:00,72.3,71.8,30.12,NE,51,0.0,0.0,98,0.00,,,0.00,meteohub,2013-07-17 11:22:00,
2013-07-17 07:27:00,72.7,72.1,30.12,NE,51,0.0,0.0,98,0.00,,,0.00,meteohub,2013-07-17 11:27:00,
2013-07-17 07:32:00,73.9,73.4,30.12,NE,51,0.0,0.0,98,0.00,,,0.00,meteohub,2013-07-17 11:32:00,
2013-07-17 07:37:00,75.6,75.2,30.12,NE,51,0.0,0.0,99,0.00,,,0.00,meteohub,2013-07-17 11:37:00,
2013-07-17 07:42:00,75.4,74.1,30.12,NE,51,0.0,0.0,96,0.00,,,0.00,meteohub,2013-07-17 11:42:00,
2013-07-17 07:47:00,75.6,74.3,30.12,NE,51,0.0,0.0,96,0.00,,,0.00,meteohub,2013-07-17 11:47:00,
2013-07-17 07:52:00,76.1,74.8,30.12,NE,51,0.0,0.0,96,0.00,,,0.00,meteohub,2013-07-17 11:52:00,
2013-07-17 07:57:00,76.6,75.0,30.12,NE,51,0.0,0.0,95,0.00,,,0.00,meteohub,2013-07-17 11:57:00,
2013-07-17 08:02:00,77.7,76.1,30.12,NE,51,0.0,0.0,95,0.00,,,0.00,meteohub,2013-07-17 12:02:00,
2013-07-17 08:07:00,78.8,75.9,30.12,NE,51,0.0,0.0,91,0.00,,,0.00,meteohub,2013-07-17 12:07:00,
2013-07-17 08:12:00,79.7,75.7,30.12,NE,51,0.0,0.0,88,0.00,,,0.00,meteohub,2013-07-17 12:12:00,
2013-07-17 08:17:00,80.1,75.9,30.12,NE,51,0.0,0.0,87,0.00,,,0.00,meteohub,2013-07-17 12:17:00,
2013-07-17 08:22:00,80.8,76.3,30.12,NE,51,0.0,0.0,86,0.00,,,0.00,meteohub,2013-07-17 12:22:00,
2013-07-17 08:27:00,81.3,75.4,30.12,NE,47,0.0,0.0,82,0.00,,,0.00,meteohub,2013-07-17 12:27:00,
2013-07-17 08:32:00,81.5,75.4,30.12,SE,133,0.0,0.0,82,0.00,,,0.00,meteohub,2013-07-17 12:32:00,
2013-07-17 08:37:00,81.9,75.7,30.12,SE,133,0.0,0.0,82,0.00,,,0.00,meteohub,2013-07-17 12:37:00,
2013-07-17 08:42:00,82.2,75.4,30.12,SE,132,0.0,0.0,80,0.00,,,0.00,meteohub,2013-07-17 12:42:00,
2013-07-17 08:47:00,82.8,75.6,30.12,SSE,158,0.0,0.0,79,0.00,,,0.00,meteohub,2013-07-17 12:47:00,
2013-07-17 08:52:00,83.5,75.9,30.12,SSE,158,0.0,0.0,78,0.00,,,0.00,meteohub,2013-07-17 12:52:00,
2013-07-17 08:58:00,84.6,77.0,30.12,SSE,148,0.0,0.0,78,0.00,,,0.00,meteohub,2013-07-17 12:58:00,
2013-07-17 09:03:00,85.3,76.8,30.12,WNW,290,0.0,0.0,76,0.00,,,0.00,meteohub,2013-07-17 13:03:00,
2013-07-17 09:08:00,85.3,75.6,30.12,NE,37,1.0,0.0,73,0.00,,,0.00,meteohub,2013-07-17 13:08:00,
2013-07-17 09:13:00,85.8,77.0,30.12,NE,39,1.0,0.0,75,0.00,,,0.00,meteohub,2013-07-17 13:13:00,
2013-07-17 09:18:00,86.2,75.2,30.12,NE,48,0.0,1.0,70,0.00,,,0.00,meteohub,2013-07-17 13:18:00,
2013-07-17 09:23:00,86.4,75.9,30.12,SSE,162,1.0,2.0,71,0.00,,,0.00,meteohub,2013-07-17 13:23:00,
2013-07-17 09:28:00,86.5,74.3,30.12,East,79,0.0,2.0,67,0.00,,,0.00,meteohub,2013-07-17 13:28:00,
2013-07-17 09:33:00,87.1,74.8,30.12,SW,235,2.0,4.0,67,0.00,,,0.00,meteohub,2013-07-17 13:33:00,
2013-07-17 09:39:00,87.1,74.8,30.12,ENE,59,2.0,4.0,67,0.00,,,0.00,meteohub,2013-07-17 13:39:00,
2013-07-17 09:44:00,87.3,75.0,30.12,South,173,1.0,6.0,67,0.00,,,0.00,meteohub,2013-07-17 13:44:00,
2013-07-17 09:49:00,87.4,72.9,30.12,ENE,66,3.0,6.0,62,0.00,,,0.00,meteohub,2013-07-17 13:49:00,
2013-07-17 09:54:00,87.4,74.3,30.12,SSW,210,0.0,6.0,65,0.00,,,0.00,meteohub,2013-07-17 13:54:00,
2013-07-17 09:59:00,88.0,74.7,30.12,West,259,0.0,5.0,65,0.00,,,0.00,meteohub,2013-07-17 13:59:00,
2013-07-17 10:04:00,88.3,75.9,30.12,SE,135,2.0,5.0,67,0.00,,,0.00,meteohub,2013-07-17 14:04:00,
2013-07-17 10:09:00,88.5,75.2,30.12,SW,217,1.0,3.0,65,0.00,,,0.00,meteohub,2013-07-17 14:09:00,
2013-07-17 10:14:00,88.9,74.1,30.12,WNW,283,0.0,3.0,62,0.00,,,0.00,meteohub,2013-07-17 14:14:00,
2013-07-17 10:19:00,89.1,75.2,30.12,NW,314,1.0,3.0,64,0.00,,,0.00,meteohub,2013-07-17 14:19:00,
2013-07-17 10:25:00,89.2,75.0,30.12,South,179,1.0,3.0,63,0.00,,,0.00,meteohub,2013-07-17 14:25:00,
2013-07-17 10:30:00,89.2,74.5,30.12,SW,219,0.0,3.0,62,0.00,,,0.00,meteohub,2013-07-17 14:30:00,
2013-07-17 10:35:00,89.4,74.1,30.12,SE,124,1.0,4.0,61,0.00,,,0.00,meteohub,2013-07-17 14:35:00,
2013-07-17 10:40:00,89.2,75.0,30.12,SSE,150,1.0,4.0,63,0.00,,,0.00,meteohub,2013-07-17 14:40:00,
2013-07-17 10:45:00,89.8,75.6,30.12,WSW,257,1.0,4.0,63,0.00,,,0.00,meteohub,2013-07-17 14:45:00,
2013-07-17 10:50:00,90.0,76.6,30.12,WSW,248,0.0,3.0,65,0.00,,,0.00,meteohub,2013-07-17 14:50:00,
2013-07-17 10:55:00,90.1,75.4,30.11,WSW,250,2.0,3.0,62,0.00,,,0.00,meteohub,2013-07-17 14:55:00,
2013-07-17 11:01:00,90.1,76.3,30.11,West,280,2.0,3.0,64,0.00,,,0.00,meteohub,2013-07-17 15:01:00,
2013-07-17 11:06:00,90.7,76.3,30.12,South,172,0.0,3.0,63,0.00,,,0.00,meteohub,2013-07-17 15:06:00,
2013-07-17 11:11:00,91.0,76.3,30.11,West,271,1.0,3.0,62,0.00,,,0.00,meteohub,2013-07-17 15:11:00,
2013-07-17 11:16:00,90.9,76.5,30.11,WSW,238,2.0,4.0,63,0.00,,,0.00,meteohub,2013-07-17 15:16:00,
2013-07-17 11:21:00,90.7,75.9,30.11,West,276,1.0,4.0,62,0.00,,,0.00,meteohub,2013-07-17 15:21:00,
2013-07-17 11:26:00,90.7,74.3,30.11,East,99,1.0,4.0,59,0.00,,,0.00,meteohub,2013-07-17 15:26:00,
2013-07-17 11:32:00,91.0,76.3,30.11,SSE,148,0.0,4.0,62,0.00,,,0.00,meteohub,2013-07-17 15:32:00,
2013-07-17 11:37:00,91.2,77.4,30.11,SW,229,1.0,4.0,64,0.00,,,0.00,meteohub,2013-07-17 15:37:00,
2013-07-17 11:42:00,91.4,77.5,30.11,East,86,0.0,3.0,64,0.00,,,0.00,meteohub,2013-07-17 15:42:00,
2013-07-17 11:47:00,91.6,76.6,30.11,North,9,1.0,3.0,62,0.00,,,0.00,meteohub,2013-07-17 15:47:00,
2013-07-17 11:52:00,91.8,75.9,30.11,SSW,200,0.0,4.0,60,0.00,,,0.00,meteohub,2013-07-17 15:52:00,
2013-07-17 11:57:00,92.1,76.6,30.11,WNW,298,1.0,4.0,61,0.00,,,0.00,meteohub,2013-07-17 15:57:00,
2013-07-17 12:02:00,92.1,75.2,30.10,SSE,155,0.0,3.0,58,0.00,,,0.00,meteohub,2013-07-17 16:02:00,
2013-07-17 12:07:00,92.1,75.7,30.10,WSW,247,1.0,3.0,59,0.00,,,0.00,meteohub,2013-07-17 16:07:00,
2013-07-17 12:12:00,92.3,77.9,30.10,WSW,244,1.0,3.0,63,0.00,,,0.00,meteohub,2013-07-17 16:12:00,
2013-07-17 12:17:00,92.1,76.3,30.09,West,267,1.0,3.0,60,0.00,,,0.00,meteohub,2013-07-17 16:17:00,
2013-07-17 12:22:00,92.1,77.2,30.09,NW,314,2.0,4.0,62,0.00,,,0.00,meteohub,2013-07-17 16:22:00,
2013-07-17 12:27:00,92.8,75.9,30.09,ESE,118,1.0,4.0,58,0.00,,,0.00,meteohub,2013-07-17 16:27:00,
2013-07-17 12:32:00,93.0,75.6,30.09,NE,34,3.0,4.0,57,0.00,,,0.00,meteohub,2013-07-17 16:32:00,
2013-07-17 12:37:00,92.7,75.7,30.09,West,262,1.0,3.0,58,0.00,,,0.00,meteohub,2013-07-17 16:37:00,
2013-07-17 12:42:00,92.8,75.4,30.09,SE,136,1.0,3.0,57,0.00,,,0.00,meteohub,2013-07-17 16:42:00,
2013-07-17 12:47:00,92.8,74.3,30.09,ENE,71,0.0,3.0,55,0.00,,,0.00,meteohub,2013-07-17 16:47:00,
2013-07-17 12:52:00,93.2,74.7,30.09,WNW,303,1.0,3.0,55,0.00,,,0.00,meteohub,2013-07-17 16:52:00,
2013-07-17 12:57:00,93.4,75.4,30.09,ENE,72,2.0,3.0,56,0.00,,,0.00,meteohub,2013-07-17 16:57:00,
2013-07-17 13:02:00,93.6,75.6,30.09,SE,134,2.0,3.0,56,0.00,,,0.00,meteohub,2013-07-17 17:02:00,
2013-07-17 13:07:00,93.7,74.7,30.09,SSW,200,0.0,3.0,54,0.00,,,0.00,meteohub,2013-07-17 17:07:00,
2013-07-17 13:12:00,94.1,75.4,30.09,SSE,150,0.0,3.0,55,0.00,,,0.00,meteohub,2013-07-17 17:12:00,
2013-07-17 13:17:00,94.5,74.1,30.08,West,278,0.0,3.0,52,0.00,,,0.00,meteohub,2013-07-17 17:17:00,
2013-07-17 13:22:00,94.5,76.3,30.08,WSW,257,0.0,3.0,56,0.00,,,0.00,meteohub,2013-07-17 17:22:00,
2013-07-17 13:27:00,93.7,73.4,30.08,SW,216,0.0,4.0,52,0.00,,,0.00,meteohub,2013-07-17 17:27:00,
2013-07-17 13:32:00,93.9,75.2,30.08,WNW,285,1.0,4.0,55,0.00,,,0.00,meteohub,2013-07-17 17:32:00,
2013-07-17 13:37:00,94.5,75.2,30.08,WSW,239,0.0,4.0,54,0.00,,,0.00,meteohub,2013-07-17 17:37:00,
2013-07-17 13:42:00,94.5,74.1,30.08,North,6,1.0,3.0,52,0.00,,,0.00,meteohub,2013-07-17 17:42:00,
2013-07-17 13:47:00,94.5,74.7,30.08,West,276,0.0,3.0,53,0.00,,,0.00,meteohub,2013-07-17 17:47:00,
2013-07-17 13:52:00,94.3,73.9,30.07,WNW,293,0.0,3.0,52,0.00,,,0.00,meteohub,2013-07-17 17:52:00,
2013-07-17 13:57:00,94.3,73.9,30.07,West,281,2.0,3.0,52,0.00,,,0.00,meteohub,2013-07-17 17:57:00,
2013-07-17 14:02:00,93.9,75.7,30.07,West,263,0.0,3.0,56,0.00,,,0.00,meteohub,2013-07-17 18:02:00,
2013-07-17 14:07:00,94.3,75.0,30.07,ENE,77,1.0,4.0,54,0.00,,,0.00,meteohub,2013-07-17 18:07:00,
2013-07-17 14:12:00,94.3,70.9,30.06,SW,219,0.0,4.0,47,0.00,,,0.00,meteohub,2013-07-17 18:12:00,
2013-07-17 14:17:00,94.3,72.9,30.06,ENE,68,1.0,3.0,50,0.00,,,0.00,meteohub,2013-07-17 18:17:00,
2013-07-17 14:22:00,94.3,72.1,30.06,NW,304,0.0,3.0,49,0.00,,,0.00,meteohub,2013-07-17 18:22:00,
2013-07-17 14:27:00,94.3,73.4,30.06,WSW,249,1.0,3.0,51,0.00,,,0.00,meteohub,2013-07-17 18:27:00,
2013-07-17 14:33:00,94.5,75.2,30.06,NNW,330,0.0,4.0,54,0.00,,,0.00,meteohub,2013-07-17 18:33:00,
2013-07-17 14:38:00,95.0,75.7,30.06,SSW,200,1.0,4.0,54,0.00,,,0.00,meteohub,2013-07-17 18:38:00,
2013-07-17 14:43:00,94.8,74.5,30.06,WNW,286,2.0,4.0,52,0.00,,,0.00,meteohub,2013-07-17 18:43:00,
2013-07-17 14:48:00,94.6,74.3,30.06,WSW,253,1.0,4.0,52,0.00,,,0.00,meteohub,2013-07-17 18:48:00,
2013-07-17 14:53:00,94.6,73.8,30.06,West,259,0.0,4.0,51,0.00,,,0.00,meteohub,2013-07-17 18:53:00,
2013-07-17 14:58:00,94.8,76.1,30.05,SSW,211,1.0,4.0,55,0.00,,,0.00,meteohub,2013-07-17 18:58:00,
2013-07-17 15:03:00,94.8,72.7,30.05,WSW,254,1.0,4.0,49,0.00,,,0.00,meteohub,2013-07-17 19:03:00,
2013-07-17 15:08:00,94.8,73.9,30.05,West,275,0.0,4.0,51,0.00,,,0.00,meteohub,2013-07-17 19:08:00,
2013-07-17 15:13:00,94.8,73.9,30.05,WNW,295,2.0,3.0,51,0.00,,,0.00,meteohub,2013-07-17 19:13:00,
2013-07-17 15:18:00,94.6,73.8,30.04,WSW,249,0.0,3.0,51,0.00,,,0.00,meteohub,2013-07-17 19:18:00,
2013-07-17 15:23:00,94.8,71.4,30.04,WSW,239,0.0,3.0,47,0.00,,,0.00,meteohub,2013-07-17 19:23:00,
2013-07-17 15:28:00,95.2,71.8,30.04,WSW,256,1.0,3.0,47,0.00,,,0.00,meteohub,2013-07-17 19:28:00,
2013-07-17 15:33:00,94.6,73.0,30.04,West,277,0.0,3.0,50,0.00,,,0.00,meteohub,2013-07-17 19:33:00,
2013-07-17 15:38:00,94.6,72.5,30.04,WSW,249,1.0,3.0,49,0.00,,,0.00,meteohub,2013-07-17 19:38:00,
2013-07-17 15:43:00,94.5,72.3,30.04,WSW,242,1.0,3.0,49,0.00,,,0.00,meteohub,2013-07-17 19:43:00,
2013-07-17 15:49:00,94.5,74.1,30.04,WNW,286,2.0,2.0,52,0.00,,,0.00,meteohub,2013-07-17 19:49:00,
2013-07-17 15:54:00,93.7,70.5,30.03,SW,231,0.0,2.0,47,0.00,,,0.00,meteohub,2013-07-17 19:54:00,
2013-07-17 15:59:00,94.1,71.4,30.03,SE,134,0.0,5.0,48,0.00,,,0.00,meteohub,2013-07-17 19:59:00,
2013-07-17 16:04:00,94.1,72.0,30.03,North,6,0.0,5.0,49,0.00,,,0.00,meteohub,2013-07-17 20:04:00,
2013-07-17 16:09:00,94.5,72.3,30.03,North,6,0.0,2.0,49,0.00,,,0.00,meteohub,2013-07-17 20:09:00,
2013-07-17 16:10:00,94.6,73.0,30.03,North,6,0.0,2.0,50,0.00,,,0.00,meteohub,2013-07-17 20:10:00,
2013-07-17 16:15:00,95.2,73.0,30.02,North,5,0.0,2.0,49,0.00,,,0.00,meteohub,2013-07-17 20:15:00,
2013-07-17 16:21:00,94.5,73.6,30.02,SSW,192,2.0,2.0,51,0.00,,,0.00,meteohub,2013-07-17 20:21:00,
2013-07-17 16:26:00,94.6,72.5,30.02,South,188,0.0,2.0,49,0.00,,,0.00,meteohub,2013-07-17 20:26:00,
2013-07-17 16:31:00,95.4,77.2,30.02,WSW,253,1.0,2.0,56,0.00,,,0.00,meteohub,2013-07-17 20:31:00,
2013-07-17 16:36:00,94.8,72.7,30.01,WNW,290,0.0,2.0,49,0.00,,,0.00,meteohub,2013-07-17 20:36:00,
2013-07-17 16:41:00,95.2,73.6,30.01,ESE,122,0.0,1.0,50,0.00,,,0.00,meteohub,2013-07-17 20:41:00,
2013-07-17 16:46:00,96.1,75.6,30.01,SE,124,0.0,1.0,52,0.00,,,0.00,meteohub,2013-07-17 20:46:00,
2013-07-17 16:51:00,96.1,77.4,30.01,NNW,330,0.0,1.0,55,0.00,,,0.00,meteohub,2013-07-17 20:51:00,
2013-07-17 16:56:00,95.0,73.9,30.01,NW,311,0.0,1.0,51,0.00,,,0.00,meteohub,2013-07-17 20:56:00,
2013-07-17 17:01:00,95.0,73.9,30.01,SW,221,1.0,1.0,51,0.00,,,0.00,meteohub,2013-07-17 21:01:00,
2013-07-17 17:06:00,94.5,75.7,30.01,West,274,0.0,1.0,55,0.00,,,0.00,meteohub,2013-07-17 21:06:00,
2013-07-17 17:11:00,94.3,73.9,30.01,NNE,23,1.0,1.0,52,0.00,,,0.00,meteohub,2013-07-17 21:11:00,
2013-07-17 17:16:00,93.7,75.2,30.01,NNE,23,0.0,1.0,55,0.00,,,0.00,meteohub,2013-07-17 21:16:00,
2013-07-17 17:21:00,94.3,74.5,30.01,WNW,293,0.0,1.0,53,0.00,,,0.00,meteohub,2013-07-17 21:21:00,
2013-07-17 17:27:00,94.8,75.0,30.01,WNW,293,0.0,1.0,53,0.00,,,0.00,meteohub,2013-07-17 21:27:00,
2013-07-17 17:32:00,95.4,76.1,30.01,WNW,295,0.0,1.0,54,0.00,,,0.00,meteohub,2013-07-17 21:32:00,
2013-07-17 17:37:00,95.5,76.3,30.01,WNW,295,0.0,0.0,54,0.00,,,0.00,meteohub,2013-07-17 21:37:00,
2013-07-17 17:42:00,96.1,75.0,30.01,WNW,295,0.0,1.0,51,0.00,,,0.00,meteohub,2013-07-17 21:42:00,
2013-07-17 17:47:00,96.1,77.4,30.00,NNW,338,0.0,1.0,55,0.00,,,0.00,meteohub,2013-07-17 21:47:00,
2013-07-17 17:52:00,95.5,76.3,30.01,NNW,338,0.0,1.0,54,0.00,,,0.00,meteohub,2013-07-17 21:52:00,
2013-07-17 17:57:00,94.6,75.4,30.00,NNW,338,0.0,1.0,54,0.00,,,0.00,meteohub,2013-07-17 21:57:00,
2013-07-17 18:02:00,93.7,76.3,30.00,NNW,338,0.0,0.0,57,0.00,,,0.00,meteohub,2013-07-17 22:02:00,
2013-07-17 18:07:00,93.4,77.9,30.00,NNW,338,0.0,0.0,61,0.00,,,0.00,meteohub,2013-07-17 22:07:00,
2013-07-17 18:12:00,92.5,77.0,30.00,NNW,338,0.0,1.0,61,0.00,,,0.00,meteohub,2013-07-17 22:12:00,
2013-07-17 18:17:00,91.6,77.2,30.00,NNW,338,0.0,1.0,63,0.00,,,0.00,meteohub,2013-07-17 22:17:00,
2013-07-17 18:22:00,91.0,78.6,30.00,NNW,338,0.0,1.0,67,0.00,,,0.00,meteohub,2013-07-17 22:22:00,
2013-07-17 18:27:00,90.3,77.4,30.00,NNW,338,0.0,0.0,66,0.00,,,0.00,meteohub,2013-07-17 22:27:00,
2013-07-17 18:32:00,89.8,77.7,30.00,NNW,338,0.0,1.0,68,0.00,,,0.00,meteohub,2013-07-17 22:32:00,
2013-07-17 18:37:00,89.1,77.2,30.00,NNW,339,0.0,1.0,68,0.00,,,0.00,meteohub,2013-07-17 22:37:00,
2013-07-17 18:42:00,88.9,77.4,29.99,NNW,339,0.0,1.0,69,0.00,,,0.00,meteohub,2013-07-17 22:42:00,
2013-07-17 18:47:00,88.5,77.9,30.00,NNW,338,0.0,0.0,71,0.00,,,0.00,meteohub,2013-07-17 22:47:00,
2013-07-17 18:52:00,88.3,78.1,30.00,NNW,339,0.0,0.0,72,0.00,,,0.00,meteohub,2013-07-17 22:52:00,
2013-07-17 18:57:00,88.0,78.3,30.00,NNW,338,0.0,0.0,73,0.00,,,0.00,meteohub,2013-07-17 22:57:00,
2013-07-17 19:02:00,87.6,77.9,30.00,NNW,338,0.0,0.0,73,0.00,,,0.00,meteohub,2013-07-17 23:02:00,
2013-07-17 19:07:00,87.1,78.6,30.00,NNW,339,0.0,0.0,76,0.00,,,0.00,meteohub,2013-07-17 23:07:00,
2013-07-17 19:12:00,86.5,78.1,30.00,NNW,338,0.0,0.0,76,0.00,,,0.00,meteohub,2013-07-17 23:12:00,
2013-07-17 19:17:00,86.2,77.7,30.00,NNW,339,0.0,0.0,76,0.00,,,0.00,meteohub,2013-07-17 23:17:00,
2013-07-17 19:22:00,85.6,78.8,29.99,NNW,339,0.0,0.0,80,0.00,,,0.00,meteohub,2013-07-17 23:22:00,
2013-07-17 19:27:00,85.3,78.1,29.99,NNW,338,0.0,0.0,79,0.00,,,0.00,meteohub,2013-07-17 23:27:00,
2013-07-17 19:32:00,84.7,78.6,30.00,NNW,338,0.0,0.0,82,0.00,,,0.00,meteohub,2013-07-17 23:32:00,
2013-07-17 19:37:00,84.4,78.3,29.99,NNW,338,0.0,0.0,82,0.00,,,0.00,meteohub,2013-07-17 23:37:00,
2013-07-17 19:42:00,83.8,77.7,29.99,NNW,338,0.0,0.0,82,0.00,,,0.00,meteohub,2013-07-17 23:42:00,
2013-07-17 19:47:00,83.5,78.1,29.99,NNW,339,0.0,0.0,84,0.00,,,0.00,meteohub,2013-07-17 23:47:00,
2013-07-17 19:52:00,83.1,77.7,29.99,NNW,338,0.0,0.0,84,0.00,,,0.00,meteohub,2013-07-17 23:52:00,
2013-07-17 19:57:00,82.8,78.1,29.99,NNW,338,0.0,0.0,86,0.00,,,0.00,meteohub,2013-07-17 23:57:00,
2013-07-17 20:02:00,82.4,78.1,29.99,NNW,338,0.0,1.0,87,0.00,,,0.00,meteohub,2013-07-18 00:02:00,
2013-07-17 20:07:00,82.0,78.1,29.99,NNW,338,0.0,1.0,88,0.00,,,0.00,meteohub,2013-07-18 00:07:00,
2013-07-17 20:12:00,81.5,77.5,29.99,NNW,338,0.0,1.0,88,0.00,,,0.00,meteohub,2013-07-18 00:12:00,
2013-07-17 20:17:00,81.0,77.0,29.99,NNW,347,0.0,0.0,88,0.00,,,0.00,meteohub,2013-07-18 00:17:00,
2013-07-17 20:22:00,80.4,76.8,29.99,NNW,347,0.0,0.0,89,0.00,,,0.00,meteohub,2013-07-18 00:22:00,
2013-07-17 20:27:00,80.1,76.8,29.99,NNW,348,0.0,0.0,90,0.00,,,0.00,meteohub,2013-07-18 00:27:00,
2013-07-17 20:32:00,79.5,76.6,29.99,NNW,348,0.0,0.0,91,0.00,,,0.00,meteohub,2013-07-18 00:32:00,
2013-07-17 20:37:00,79.2,76.3,29.99,NNW,348,0.0,0.0,91,0.00,,,0.00,meteohub,2013-07-18 00:37:00,
2013-07-17 20:42:00,78.6,75.7,29.99,NNW,348,0.0,0.0,91,0.00,,,0.00,meteohub,2013-07-18 00:42:00,
2013-07-17 20:47:00,78.4,75.6,29.99,NNW,348,0.0,0.0,91,0.00,,,0.00,meteohub,2013-07-18 00:47:00,
2013-07-17 20:52:00,78.1,75.6,29.99,NNW,348,0.0,0.0,92,0.00,,,0.00,meteohub,2013-07-18 00:52:00,
2013-07-17 20:57:00,77.5,75.0,29.99,North,349,0.0,0.0,92,0.00,,,0.00,meteohub,2013-07-18 00:57:00,
2013-07-17 21:02:00,77.2,74.7,29.99,NNW,348,0.0,0.0,92,0.00,,,0.00,meteohub,2013-07-18 01:02:00,
2013-07-17 21:07:00,76.8,74.3,29.99,NNW,348,0.0,0.0,92,0.00,,,0.00,meteohub,2013-07-18 01:07:00,
2013-07-17 21:12:00,76.6,74.1,29.99,North,349,0.0,0.0,92,0.00,,,0.00,meteohub,2013-07-18 01:12:00,
2013-07-17 21:17:00,76.5,73.9,29.99,NNW,348,0.0,0.0,92,0.00,,,0.00,meteohub,2013-07-18 01:17:00,
2013-07-17 21:22:00,76.3,74.1,29.99,NNW,348,0.0,0.0,93,0.00,,,0.00,meteohub,2013-07-18 01:22:00,
2013-07-17 21:27:00,75.9,73.8,29.99,NNW,348,0.0,0.0,93,0.00,,,0.00,meteohub,2013-07-18 01:27:00,
2013-07-17 21:32:00,75.7,73.6,30.00,NNW,348,0.0,0.0,93,0.00,,,0.00,meteohub,2013-07-18 01:32:00,
2013-07-17 21:37:00,75.6,73.4,29.99,North,349,0.0,0.0,93,0.00,,,0.00,meteohub,2013-07-18 01:37:00,
2013-07-17 21:42:00,75.4,73.2,30.00,North,349,0.0,0.0,93,0.00,,,0.00,meteohub,2013-07-18 01:42:00,
2013-07-17 21:47:00,75.2,73.0,30.00,NNW,348,0.0,0.0,93,0.00,,,0.00,meteohub,2013-07-18 01:47:00,
2013-07-17 21:52:00,75.0,72.9,30.01,North,349,0.0,0.0,93,0.00,,,0.00,meteohub,2013-07-18 01:52:00,
2013-07-17 21:57:00,74.8,72.7,30.01,NNW,348,0.0,0.0,93,0.00,,,0.00,meteohub,2013-07-18 01:57:00,
2013-07-17 22:02:00,74.7,72.9,30.01,North,349,0.0,0.0,94,0.00,,,0.00,meteohub,2013-07-18 02:02:00,
2013-07-17 22:07:00,74.7,72.9,30.01,NNW,348,0.0,0.0,94,0.00,,,0.00,meteohub,2013-07-18 02:07:00,
2013-07-17 22:12:00,74.5,72.7,30.01,NNW,348,0.0,0.0,94,0.00,,,0.00,meteohub,2013-07-18 02:12:00,
2013-07-17 22:17:00,74.1,72.7,30.01,North,349,0.0,0.0,95,0.00,,,0.00,meteohub,2013-07-18 02:17:00,
2013-07-17 22:22:00,74.1,72.7,30.01,NNW,348,0.0,0.0,95,0.00,,,0.00,meteohub,2013-07-18 02:22:00,
2013-07-17 22:27:00,73.9,72.5,30.01,NNW,348,0.0,0.0,95,0.00,,,0.00,meteohub,2013-07-18 02:27:00,
2013-07-17 22:32:00,73.9,72.5,30.01,North,11,0.0,0.0,95,0.00,,,0.00,meteohub,2013-07-18 02:32:00,
2013-07-17 22:37:00,73.8,72.5,30.01,North,10,0.0,2.0,96,0.00,,,0.00,meteohub,2013-07-18 02:37:00,
2013-07-17 22:42:00,73.6,72.3,30.01,North,10,0.0,2.0,96,0.00,,,0.00,meteohub,2013-07-18 02:42:00,
2013-07-17 22:47:00,73.6,72.3,30.01,North,10,0.0,2.0,96,0.00,,,0.00,meteohub,2013-07-18 02:47:00,
2013-07-17 22:52:00,73.6,72.3,30.00,North,11,0.0,0.0,96,0.00,,,0.00,meteohub,2013-07-18 02:52:00,
2013-07-17 22:57:00,73.6,72.3,30.01,North,10,0.0,0.0,96,0.00,,,0.00,meteohub,2013-07-18 02:57:00,
2013-07-17 23:02:00,73.4,72.1,30.00,North,11,0.0,1.0,96,0.00,,,0.00,meteohub,2013-07-18 03:02:00,
2013-07-17 23:07:00,73.2,72.0,30.00,North,10,0.0,1.0,96,0.00,,,0.00,meteohub,2013-07-18 03:07:00,
2013-07-17 23:12:00,73.2,72.3,30.00,North,11,0.0,1.0,97,0.00,,,0.00,meteohub,2013-07-18 03:12:00,
2013-07-17 23:17:00,73.0,71.8,30.00,North,10,0.0,0.0,96,0.00,,,0.00,meteohub,2013-07-18 03:17:00,
2013-07-17 23:22:00,73.0,72.1,30.00,North,10,0.0,0.0,97,0.00,,,0.00,meteohub,2013-07-18 03:22:00,
2013-07-17 23:27:00,72.9,72.0,30.00,North,11,0.0,0.0,97,0.00,,,0.00,meteohub,2013-07-18 03:27:00,
2013-07-17 23:32:00,72.9,72.0,30.00,North,10,0.0,0.0,97,0.00,,,0.00,meteohub,2013-07-18 03:32:00,
2013-07-17 23:37:00,72.7,71.8,30.00,North,11,0.0,0.0,97,0.00,,,0.00,meteohub,2013-07-18 03:37:00,
2013-07-17 23:42:00,72.7,71.8,30.00,North,10,0.0,0.0,97,0.00,,,0.00,meteohub,2013-07-18 03:42:00,
2013-07-17 23:47:00,72.7,71.8,30.00,North,10,0.0,0.0,97,0.00,,,0.00,meteohub,2013-07-18 03:47:00,
2013-07-17 23:52:00,72.7,71.8,30.00,North,10,0.0,0.0,97,0.00,,,0.00,meteohub,2013-07-18 03:52:00,
2013-07-17 23:57:00,72.7,71.8,30.00,North,11,0.0,0.0,97,0.00,,,0.00,meteohub,2013-07-18 03:57:00,